ADDS METAR Data INFO
IDs: Format: Raw Decoded Include TAF

Data at: 2021 UTC 22 Apr 2018

KMTH 221953Z AUTO 13010G17KT 10SM CLR 29/22 A3002 RMK AO2 SLP163 T02940217